sensor_id;sensor_type;location;lat;lon;timestamp;P1;durP1;ratioP1;P2;durP2;ratioP2
11957;SDS011;6039;52.576;13.348;2024-02-14T00:04:42;7.73;;;4.87;;
11957;SDS011;6039;52.576;13.348;2024-02-14T00:09:48;7.90;;;4.30;;
11957;SDS011;6039;52.576;13.348;2024-02-14T00:14:53;7.93;;;4.67;;
11957;SDS011;6039;52.576;13.348;2024-02-14T00:19:58;7.43;;;4.63;;
11957;SDS011;6039;52.576;13.348;2024-02-14T00:25:06;7.30;;;4.07;;
11957;SDS011;6039;52.576;13.348;2024-02-14T00:30:11;8.87;;;4.90;;
11957;SDS011;6039;52.576;13.348;2024-02-14T00:35:16;8.87;;;3.83;;
11957;SDS011;6039;52.576;13.348;2024-02-14T00:40:23;11.87;;;4.27;;
11957;SDS011;6039;52.576;13.348;2024-02-14T00:45:27;8.10;;;4.47;;
11957;SDS011;6039;52.576;13.348;2024-02-14T00:50:31;7.03;;;4.00;;
11957;SDS011;6039;52.576;13.348;2024-02-14T00:55:37;8.63;;;4.33;;
11957;SDS011;6039;52.576;13.348;2024-02-14T01:00:41;7.00;;;4.73;;
11957;SDS011;6039;52.576;13.348;2024-02-14T01:05:45;6.27;;;4.27;;
11957;SDS011;6039;52.576;13.348;2024-02-14T01:10:52;7.00;;;4.73;;
11957;SDS011;6039;52.576;13.348;2024-02-14T01:15:56;6.50;;;4.23;;
11957;SDS011;6039;52.576;13.348;2024-02-14T01:21:00;11.17;;;5.00;;
11957;SDS011;6039;52.576;13.348;2024-02-14T01:26:06;9.33;;;4.77;;
11957;SDS011;6039;52.576;13.348;2024-02-14T01:31:10;7.23;;;4.33;;
11957;SDS011;6039;52.576;13.348;2024-02-14T01:36:14;7.83;;;4.07;;
11957;SDS011;6039;52.576;13.348;2024-02-14T01:41:21;7.33;;;4.20;;
11957;SDS011;6039;52.576;13.348;2024-02-14T01:46:25;6.77;;;4.50;;
11957;SDS011;6039;52.576;13.348;2024-02-14T01:51:29;6.20;;;3.93;;
11957;SDS011;6039;52.576;13.348;2024-02-14T01:56:36;6.00;;;4.10;;
11957;SDS011;6039;52.576;13.348;2024-02-14T02:01:40;7.43;;;3.97;;
11957;SDS011;6039;52.576;13.348;2024-02-14T02:06:44;8.13;;;4.30;;
11957;SDS011;6039;52.576;13.348;2024-02-14T02:11:51;5.93;;;3.73;;
11957;SDS011;6039;52.576;13.348;2024-02-14T02:16:56;7.63;;;4.57;;
11957;SDS011;6039;52.576;13.348;2024-02-14T02:22:00;7.63;;;4.63;;
11957;SDS011;6039;52.576;13.348;2024-02-14T02:27:07;6.27;;;4.10;;
11957;SDS011;6039;52.576;13.348;2024-02-14T02:32:13;7.20;;;4.30;;
11957;SDS011;6039;52.576;13.348;2024-02-14T02:37:18;6.67;;;4.27;;
11957;SDS011;6039;52.576;13.348;2024-02-14T02:42:24;6.90;;;4.57;;
11957;SDS011;6039;52.576;13.348;2024-02-14T02:47:29;6.83;;;4.30;;
11957;SDS011;6039;52.576;13.348;2024-02-14T02:52:33;8.87;;;4.27;;
11957;SDS011;6039;52.576;13.348;2024-02-14T02:57:40;8.70;;;4.43;;
11957;SDS011;6039;52.576;13.348;2024-02-14T03:02:45;10.07;;;4.53;;
11957;SDS011;6039;52.576;13.348;2024-02-14T03:07:49;6.73;;;4.43;;
11957;SDS011;6039;52.576;13.348;2024-02-14T03:12:56;7.17;;;4.63;;
11957;SDS011;6039;52.576;13.348;2024-02-14T03:18:00;7.43;;;4.53;;
11957;SDS011;6039;52.576;13.348;2024-02-14T03:23:07;8.97;;;4.67;;
11957;SDS011;6039;52.576;13.348;2024-02-14T03:28:14;6.97;;;4.63;;
11957;SDS011;6039;52.576;13.348;2024-02-14T03:33:18;7.67;;;4.70;;
11957;SDS011;6039;52.576;13.348;2024-02-14T03:38:25;8.60;;;4.17;;
11957;SDS011;6039;52.576;13.348;2024-02-14T03:43:34;8.20;;;4.83;;
11957;SDS011;6039;52.576;13.348;2024-02-14T03:48:37;7.43;;;4.87;;
11957;SDS011;6039;52.576;13.348;2024-02-14T03:53:42;6.87;;;4.30;;
11957;SDS011;6039;52.576;13.348;2024-02-14T03:58:48;8.67;;;4.90;;
11957;SDS011;6039;52.576;13.348;2024-02-14T04:03:52;6.73;;;4.50;;
11957;SDS011;6039;52.576;13.348;2024-02-14T04:08:56;8.20;;;4.80;;
11957;SDS011;6039;52.576;13.348;2024-02-14T04:14:03;9.63;;;4.73;;
11957;SDS011;6039;52.576;13.348;2024-02-14T04:19:08;9.67;;;5.07;;
11957;SDS011;6039;52.576;13.348;2024-02-14T04:24:13;9.60;;;4.73;;
11957;SDS011;6039;52.576;13.348;2024-02-14T04:29:19;7.80;;;5.23;;
11957;SDS011;6039;52.576;13.348;2024-02-14T04:34:23;7.83;;;4.93;;
11957;SDS011;6039;52.576;13.348;2024-02-14T04:39:27;8.47;;;4.97;;
11957;SDS011;6039;52.576;13.348;2024-02-14T04:44:34;8.73;;;4.53;;
11957;SDS011;6039;52.576;13.348;2024-02-14T04:49:39;12.37;;;5.07;;
11957;SDS011;6039;52.576;13.348;2024-02-14T04:54:43;13.63;;;5.10;;
11957;SDS011;6039;52.576;13.348;2024-02-14T04:59:50;13.77;;;4.93;;
11957;SDS011;6039;52.576;13.348;2024-02-14T05:04:54;7.83;;;4.80;;
11957;SDS011;6039;52.576;13.348;2024-02-14T05:09:58;8.83;;;4.80;;
11957;SDS011;6039;52.576;13.348;2024-02-14T05:15:05;8.03;;;4.67;;
11957;SDS011;6039;52.576;13.348;2024-02-14T05:20:12;7.33;;;4.90;;
11957;SDS011;6039;52.576;13.348;2024-02-14T05:25:16;10.80;;;4.83;;
11957;SDS011;6039;52.576;13.348;2024-02-14T05:30:23;10.67;;;5.73;;
11957;SDS011;6039;52.576;13.348;2024-02-14T05:35:27;7.17;;;4.80;;
11957;SDS011;6039;52.576;13.348;2024-02-14T05:40:31;10.03;;;4.53;;
11957;SDS011;6039;52.576;13.348;2024-02-14T05:45:42;9.83;;;5.13;;
11957;SDS011;6039;52.576;13.348;2024-02-14T05:50:46;8.00;;;5.03;;
11957;SDS011;6039;52.576;13.348;2024-02-14T05:55:50;7.63;;;4.97;;
11957;SDS011;6039;52.576;13.348;2024-02-14T06:00:56;6.20;;;4.50;;
11957;SDS011;6039;52.576;13.348;2024-02-14T06:06:00;8.17;;;4.90;;
11957;SDS011;6039;52.576;13.348;2024-02-14T06:11:05;8.63;;;5.80;;
11957;SDS011;6039;52.576;13.348;2024-02-14T06:16:11;9.43;;;5.40;;
11957;SDS011;6039;52.576;13.348;2024-02-14T06:21:15;9.57;;;5.73;;
11957;SDS011;6039;52.576;13.348;2024-02-14T06:26:19;8.53;;;5.17;;
11957;SDS011;6039;52.576;13.348;2024-02-14T06:31:26;6.90;;;4.87;;
11957;SDS011;6039;52.576;13.348;2024-02-14T06:36:30;8.30;;;5.43;;
11957;SDS011;6039;52.576;13.348;2024-02-14T06:41:34;7.73;;;4.83;;
11957;SDS011;6039;52.576;13.348;2024-02-14T06:46:40;8.60;;;5.37;;
11957;SDS011;6039;52.576;13.348;2024-02-14T06:51:44;8.40;;;5.07;;
11957;SDS011;6039;52.576;13.348;2024-02-14T06:56:48;7.63;;;5.00;;
11957;SDS011;6039;52.576;13.348;2024-02-14T07:01:56;6.30;;;5.10;;
11957;SDS011;6039;52.576;13.348;2024-02-14T07:07:01;7.53;;;4.90;;
11957;SDS011;6039;52.576;13.348;2024-02-14T07:12:06;8.87;;;5.47;;
11957;SDS011;6039;52.576;13.348;2024-02-14T07:17:13;8.37;;;5.07;;
11957;SDS011;6039;52.576;13.348;2024-02-14T07:22:17;8.17;;;5.17;;
11957;SDS011;6039;52.576;13.348;2024-02-14T07:27:21;8.60;;;4.97;;
11957;SDS011;6039;52.576;13.348;2024-02-14T07:32:29;8.67;;;5.30;;
11957;SDS011;6039;52.576;13.348;2024-02-14T07:37:33;6.97;;;4.57;;
11957;SDS011;6039;52.576;13.348;2024-02-14T07:42:37;7.43;;;4.40;;
11957;SDS011;6039;52.576;13.348;2024-02-14T07:47:44;8.03;;;4.93;;
11957;SDS011;6039;52.576;13.348;2024-02-14T07:52:48;10.60;;;4.80;;
11957;SDS011;6039;52.576;13.348;2024-02-14T07:57:52;7.17;;;4.20;;
11957;SDS011;6039;52.576;13.348;2024-02-14T08:02:59;7.30;;;4.10;;
11957;SDS011;6039;52.576;13.348;2024-02-14T08:08:05;8.33;;;4.63;;
11957;SDS011;6039;52.576;13.348;2024-02-14T08:13:10;6.20;;;4.70;;
11957;SDS011;6039;52.576;13.348;2024-02-14T08:18:18;11.00;;;4.60;;
11957;SDS011;6039;52.576;13.348;2024-02-14T08:23:23;7.00;;;4.80;;
11957;SDS011;6039;52.576;13.348;2024-02-14T08:28:27;6.00;;;3.93;;
11957;SDS011;6039;52.576;13.348;2024-02-14T08:33:33;8.00;;;4.30;;
11957;SDS011;6039;52.576;13.348;2024-02-14T08:38:38;8.47;;;4.20;;
11957;SDS011;6039;52.576;13.348;2024-02-14T08:43:41;4.93;;;3.70;;
11957;SDS011;6039;52.576;13.348;2024-02-14T08:48:48;8.63;;;3.57;;
11957;SDS011;6039;52.576;13.348;2024-02-14T08:53:52;6.97;;;3.80;;
11957;SDS011;6039;52.576;13.348;2024-02-14T08:58:59;5.10;;;3.70;;
11957;SDS011;6039;52.576;13.348;2024-02-14T09:04:06;6.77;;;3.57;;
11957;SDS011;6039;52.576;13.348;2024-02-14T09:09:10;4.40;;;3.07;;
11957;SDS011;6039;52.576;13.348;2024-02-14T09:14:15;4.60;;;2.97;;
11957;SDS011;6039;52.576;13.348;2024-02-14T09:19:22;5.23;;;3.40;;
11957;SDS011;6039;52.576;13.348;2024-02-14T09:24:27;5.80;;;2.77;;
11957;SDS011;6039;52.576;13.348;2024-02-14T09:29:31;4.50;;;3.03;;
11957;SDS011;6039;52.576;13.348;2024-02-14T09:34:39;4.57;;;3.10;;
11957;SDS011;6039;52.576;13.348;2024-02-14T09:39:43;5.00;;;3.10;;
11957;SDS011;6039;52.576;13.348;2024-02-14T09:44:47;5.37;;;2.90;;
11957;SDS011;6039;52.576;13.348;2024-02-14T09:49:56;5.10;;;2.73;;
11957;SDS011;6039;52.576;13.348;2024-02-14T09:55:01;6.13;;;2.70;;
11957;SDS011;6039;52.576;13.348;2024-02-14T10:00:07;5.77;;;3.00;;
11957;SDS011;6039;52.576;13.348;2024-02-14T10:05:17;4.80;;;3.03;;
11957;SDS011;6039;52.576;13.348;2024-02-14T10:10:21;6.53;;;2.57;;
11957;SDS011;6039;52.576;13.348;2024-02-14T10:15:24;5.83;;;2.97;;
11957;SDS011;6039;52.576;13.348;2024-02-14T10:20:32;4.37;;;3.07;;
11957;SDS011;6039;52.576;13.348;2024-02-14T10:25:41;8.43;;;3.57;;
11957;SDS011;6039;52.576;13.348;2024-02-14T10:30:45;3.87;;;2.77;;
11957;SDS011;6039;52.576;13.348;2024-02-14T10:35:52;3.80;;;2.70;;
11957;SDS011;6039;52.576;13.348;2024-02-14T10:40:58;4.67;;;3.07;;
11957;SDS011;6039;52.576;13.348;2024-02-14T10:46:05;4.70;;;3.30;;
11957;SDS011;6039;52.576;13.348;2024-02-14T10:51:15;7.70;;;3.37;;
11957;SDS011;6039;52.576;13.348;2024-02-14T10:56:23;6.07;;;2.90;;
11957;SDS011;6039;52.576;13.348;2024-02-14T11:01:28;4.53;;;3.03;;
11957;SDS011;6039;52.576;13.348;2024-02-14T11:06:45;6.80;;;3.10;;
11957;SDS011;6039;52.576;13.348;2024-02-14T11:11:58;4.77;;;3.13;;
11957;SDS011;6039;52.576;13.348;2024-02-14T11:17:03;6.13;;;3.20;;
11957;SDS011;6039;52.576;13.348;2024-02-14T11:22:20;7.80;;;3.30;;
11957;SDS011;6039;52.576;13.348;2024-02-14T11:27:26;4.50;;;3.17;;
11957;SDS011;6039;52.576;13.348;2024-02-14T11:32:32;4.83;;;3.30;;
11957;SDS011;6039;52.576;13.348;2024-02-14T11:37:38;4.57;;;3.40;;
11957;SDS011;6039;52.576;13.348;2024-02-14T11:42:42;3.80;;;2.77;;
11957;SDS011;6039;52.576;13.348;2024-02-14T11:47:47;5.57;;;3.10;;
11957;SDS011;6039;52.576;13.348;2024-02-14T11:52:54;5.17;;;3.23;;
11957;SDS011;6039;52.576;13.348;2024-02-14T11:57:58;5.30;;;3.00;;
11957;SDS011;6039;52.576;13.348;2024-02-14T12:03:05;4.40;;;3.10;;
11957;SDS011;6039;52.576;13.348;2024-02-14T12:08:13;6.57;;;3.50;;
11957;SDS011;6039;52.576;13.348;2024-02-14T12:13:19;5.47;;;3.13;;
11957;SDS011;6039;52.576;13.348;2024-02-14T12:18:24;6.97;;;3.50;;
11957;SDS011;6039;52.576;13.348;2024-02-14T12:23:31;5.20;;;3.00;;
11957;SDS011;6039;52.576;13.348;2024-02-14T12:28:35;4.03;;;3.23;;
11957;SDS011;6039;52.576;13.348;2024-02-14T12:33:39;8.13;;;3.60;;
11957;SDS011;6039;52.576;13.348;2024-02-14T12:38:46;5.43;;;3.70;;
11957;SDS011;6039;52.576;13.348;2024-02-14T12:43:53;4.60;;;3.70;;
11957;SDS011;6039;52.576;13.348;2024-02-14T12:48:57;5.70;;;3.57;;
11957;SDS011;6039;52.576;13.348;2024-02-14T12:54:03;6.03;;;3.47;;
11957;SDS011;6039;52.576;13.348;2024-02-14T12:59:11;5.87;;;3.73;;
11957;SDS011;6039;52.576;13.348;2024-02-14T13:04:19;4.27;;;3.60;;
11957;SDS011;6039;52.576;13.348;2024-02-14T13:09:26;7.67;;;3.07;;
11957;SDS011;6039;52.576;13.348;2024-02-14T13:14:30;4.73;;;3.10;;
11957;SDS011;6039;52.576;13.348;2024-02-14T13:19:34;4.47;;;3.20;;
11957;SDS011;6039;52.576;13.348;2024-02-14T13:24:42;5.57;;;3.80;;
11957;SDS011;6039;52.576;13.348;2024-02-14T13:29:45;5.30;;;3.50;;
11957;SDS011;6039;52.576;13.348;2024-02-14T13:34:49;7.67;;;3.53;;
11957;SDS011;6039;52.576;13.348;2024-02-14T13:39:56;5.00;;;3.20;;
11957;SDS011;6039;52.576;13.348;2024-02-14T13:45:01;7.30;;;3.67;;
11957;SDS011;6039;52.576;13.348;2024-02-14T13:50:07;6.80;;;3.90;;
11957;SDS011;6039;52.576;13.348;2024-02-14T13:55:15;7.97;;;4.30;;
11957;SDS011;6039;52.576;13.348;2024-02-14T14:00:19;5.57;;;3.70;;
11957;SDS011;6039;52.576;13.348;2024-02-14T14:05:23;5.90;;;3.60;;
11957;SDS011;6039;52.576;13.348;2024-02-14T14:10:30;7.87;;;3.70;;
11957;SDS011;6039;52.576;13.348;2024-02-14T14:15:34;4.63;;;3.83;;
11957;SDS011;6039;52.576;13.348;2024-02-14T14:20:37;5.93;;;4.00;;
11957;SDS011;6039;52.576;13.348;2024-02-14T14:25:44;5.67;;;4.17;;
11957;SDS011;6039;52.576;13.348;2024-02-14T14:30:48;5.37;;;3.47;;
11957;SDS011;6039;52.576;13.348;2024-02-14T14:35:54;4.70;;;3.67;;
11957;SDS011;6039;52.576;13.348;2024-02-14T14:41:01;9.57;;;4.30;;
11957;SDS011;6039;52.576;13.348;2024-02-14T14:46:05;5.37;;;3.80;;
11957;SDS011;6039;52.576;13.348;2024-02-14T14:51:09;5.30;;;4.20;;
11957;SDS011;6039;52.576;13.348;2024-02-14T14:56:16;5.00;;;4.00;;
11957;SDS011;6039;52.576;13.348;2024-02-14T15:01:19;6.57;;;4.10;;
11957;SDS011;6039;52.576;13.348;2024-02-14T15:06:23;6.17;;;4.00;;
11957;SDS011;6039;52.576;13.348;2024-02-14T15:11:30;5.97;;;4.00;;
11957;SDS011;6039;52.576;13.348;2024-02-14T15:16:34;6.90;;;4.47;;
11957;SDS011;6039;52.576;13.348;2024-02-14T15:21:38;8.50;;;4.70;;
11957;SDS011;6039;52.576;13.348;2024-02-14T15:26:45;8.00;;;4.10;;
11957;SDS011;6039;52.576;13.348;2024-02-14T15:31:59;6.50;;;4.07;;
11957;SDS011;6039;52.576;13.348;2024-02-14T15:37:16;5.83;;;4.20;;
11957;SDS011;6039;52.576;13.348;2024-02-14T15:42:23;6.00;;;3.87;;
11957;SDS011;6039;52.576;13.348;2024-02-14T15:47:27;10.10;;;3.87;;
11957;SDS011;6039;52.576;13.348;2024-02-14T15:52:31;7.07;;;3.87;;
11957;SDS011;6039;52.576;13.348;2024-02-14T15:57:37;7.33;;;4.27;;
11957;SDS011;6039;52.576;13.348;2024-02-14T16:02:42;7.07;;;4.03;;
11957;SDS011;6039;52.576;13.348;2024-02-14T16:07:47;5.90;;;4.13;;
11957;SDS011;6039;52.576;13.348;2024-02-14T16:12:54;7.97;;;4.13;;
11957;SDS011;6039;52.576;13.348;2024-02-14T16:17:58;7.22;;;4.80;;
11957;SDS011;6039;52.576;13.348;2024-02-14T16:23:02;6.30;;;3.90;;
11957;SDS011;6039;52.576;13.348;2024-02-14T16:28:08;5.60;;;3.60;;
11957;SDS011;6039;52.576;13.348;2024-02-14T16:33:13;5.47;;;3.67;;
11957;SDS011;6039;52.576;13.348;2024-02-14T16:38:17;6.27;;;4.33;;
11957;SDS011;6039;52.576;13.348;2024-02-14T16:43:23;6.60;;;3.90;;
11957;SDS011;6039;52.576;13.348;2024-02-14T16:48:27;6.77;;;3.80;;
11957;SDS011;6039;52.576;13.348;2024-02-14T16:53:31;6.00;;;3.73;;
11957;SDS011;6039;52.576;13.348;2024-02-14T16:58:38;6.57;;;4.47;;
11957;SDS011;6039;52.576;13.348;2024-02-14T17:03:42;9.47;;;4.30;;
11957;SDS011;6039;52.576;13.348;2024-02-14T17:08:46;6.13;;;4.43;;
11957;SDS011;6039;52.576;13.348;2024-02-14T17:13:53;7.50;;;4.30;;
11957;SDS011;6039;52.576;13.348;2024-02-14T17:18:58;6.47;;;4.17;;
11957;SDS011;6039;52.576;13.348;2024-02-14T17:24:02;5.87;;;4.47;;
11957;SDS011;6039;52.576;13.348;2024-02-14T17:29:09;6.20;;;4.23;;
11957;SDS011;6039;52.576;13.348;2024-02-14T17:34:13;6.03;;;4.47;;
11957;SDS011;6039;52.576;13.348;2024-02-14T17:39:17;4.70;;;3.90;;
11957;SDS011;6039;52.576;13.348;2024-02-14T17:44:24;6.83;;;4.07;;
11957;SDS011;6039;52.576;13.348;2024-02-14T17:49:28;5.40;;;3.93;;
11957;SDS011;6039;52.576;13.348;2024-02-14T17:54:32;7.13;;;4.37;;
11957;SDS011;6039;52.576;13.348;2024-02-14T17:59:41;5.93;;;4.50;;
11957;SDS011;6039;52.576;13.348;2024-02-14T18:04:45;5.00;;;3.90;;
11957;SDS011;6039;52.576;13.348;2024-02-14T18:09:50;6.90;;;4.53;;
11957;SDS011;6039;52.576;13.348;2024-02-14T18:14:57;5.77;;;4.53;;
11957;SDS011;6039;52.576;13.348;2024-02-14T18:20:01;5.87;;;4.30;;
11957;SDS011;6039;52.576;13.348;2024-02-14T18:25:05;5.03;;;3.80;;
11957;SDS011;6039;52.576;13.348;2024-02-14T18:30:14;6.00;;;4.27;;
11957;SDS011;6039;52.576;13.348;2024-02-14T18:35:18;8.53;;;4.30;;
11957;SDS011;6039;52.576;13.348;2024-02-14T18:40:22;6.00;;;3.70;;
11957;SDS011;6039;52.576;13.348;2024-02-14T18:45:28;5.50;;;3.90;;
11957;SDS011;6039;52.576;13.348;2024-02-14T18:50:32;5.60;;;3.73;;
11957;SDS011;6039;52.576;13.348;2024-02-14T18:55:36;5.90;;;3.83;;
11957;SDS011;6039;52.576;13.348;2024-02-14T19:00:43;8.23;;;3.87;;
11957;SDS011;6039;52.576;13.348;2024-02-14T19:05:48;5.93;;;3.77;;
11957;SDS011;6039;52.576;13.348;2024-02-14T19:10:52;5.37;;;4.13;;
11957;SDS011;6039;52.576;13.348;2024-02-14T19:16:00;6.50;;;3.57;;
11957;SDS011;6039;52.576;13.348;2024-02-14T19:21:04;5.10;;;3.53;;
11957;SDS011;6039;52.576;13.348;2024-02-14T19:26:08;4.97;;;3.60;;
11957;SDS011;6039;52.576;13.348;2024-02-14T19:31:14;5.67;;;3.50;;
11957;SDS011;6039;52.576;13.348;2024-02-14T19:36:18;4.87;;;3.30;;
11957;SDS011;6039;52.576;13.348;2024-02-14T19:41:24;6.37;;;3.20;;
11957;SDS011;6039;52.576;13.348;2024-02-14T19:46:30;5.23;;;3.47;;
11957;SDS011;6039;52.576;13.348;2024-02-14T19:51:34;7.17;;;3.23;;
11957;SDS011;6039;52.576;13.348;2024-02-14T19:56:38;3.83;;;2.90;;
11957;SDS011;6039;52.576;13.348;2024-02-14T20:01:45;4.23;;;3.07;;
11957;SDS011;6039;52.576;13.348;2024-02-14T20:06:51;4.30;;;2.87;;
11957;SDS011;6039;52.576;13.348;2024-02-14T20:11:55;5.10;;;2.83;;
11957;SDS011;6039;52.576;13.348;2024-02-14T20:17:02;5.80;;;2.93;;
11957;SDS011;6039;52.576;13.348;2024-02-14T20:22:06;4.67;;;3.00;;
11957;SDS011;6039;52.576;13.348;2024-02-14T20:27:11;4.93;;;2.50;;
11957;SDS011;6039;52.576;13.348;2024-02-14T20:32:17;3.60;;;2.67;;
11957;SDS011;6039;52.576;13.348;2024-02-14T20:37:21;4.07;;;3.10;;
11957;SDS011;6039;52.576;13.348;2024-02-14T20:42:25;4.33;;;3.03;;
11957;SDS011;6039;52.576;13.348;2024-02-14T20:47:32;4.40;;;3.30;;
11957;SDS011;6039;52.576;13.348;2024-02-14T20:52:39;4.97;;;3.10;;
11957;SDS011;6039;52.576;13.348;2024-02-14T20:57:43;5.23;;;3.00;;
11957;SDS011;6039;52.576;13.348;2024-02-14T21:02:51;4.47;;;3.30;;
11957;SDS011;6039;52.576;13.348;2024-02-14T21:07:55;4.13;;;2.90;;
11957;SDS011;6039;52.576;13.348;2024-02-14T21:12:59;8.20;;;3.27;;
11957;SDS011;6039;52.576;13.348;2024-02-14T21:18:07;3.73;;;2.60;;
11957;SDS011;6039;52.576;13.348;2024-02-14T21:23:12;5.00;;;2.60;;
11957;SDS011;6039;52.576;13.348;2024-02-14T21:28:16;3.87;;;2.87;;
11957;SDS011;6039;52.576;13.348;2024-02-14T21:33:23;4.43;;;3.00;;
11957;SDS011;6039;52.576;13.348;2024-02-14T21:38:27;3.87;;;3.03;;
11957;SDS011;6039;52.576;13.348;2024-02-14T21:43:31;4.20;;;3.00;;
11957;SDS011;6039;52.576;13.348;2024-02-14T21:48:38;5.20;;;3.53;;
11957;SDS011;6039;52.576;13.348;2024-02-14T21:53:42;3.90;;;3.30;;
11957;SDS011;6039;52.576;13.348;2024-02-14T21:58:47;5.50;;;3.73;;
11957;SDS011;6039;52.576;13.348;2024-02-14T22:03:54;6.23;;;4.03;;
11957;SDS011;6039;52.576;13.348;2024-02-14T22:08:58;6.43;;;4.13;;
11957;SDS011;6039;52.576;13.348;2024-02-14T22:14:02;6.37;;;4.20;;
11957;SDS011;6039;52.576;13.348;2024-02-14T22:19:10;5.30;;;4.37;;
11957;SDS011;6039;52.576;13.348;2024-02-14T22:24:15;7.50;;;3.73;;
11957;SDS011;6039;52.576;13.348;2024-02-14T22:29:19;6.57;;;4.07;;
11957;SDS011;6039;52.576;13.348;2024-02-14T22:34:27;5.63;;;4.20;;
11957;SDS011;6039;52.576;13.348;2024-02-14T22:39:31;6.83;;;4.60;;
11957;SDS011;6039;52.576;13.348;2024-02-14T22:44:36;7.03;;;4.50;;
11957;SDS011;6039;52.576;13.348;2024-02-14T22:49:43;5.60;;;4.87;;
11957;SDS011;6039;52.576;13.348;2024-02-14T22:54:47;5.57;;;4.27;;
11957;SDS011;6039;52.576;13.348;2024-02-14T22:59:53;7.50;;;4.87;;
11957;SDS011;6039;52.576;13.348;2024-02-14T23:04:59;7.70;;;4.50;;
11957;SDS011;6039;52.576;13.348;2024-02-14T23:10:04;9.63;;;5.00;;
11957;SDS011;6039;52.576;13.348;2024-02-14T23:15:09;6.27;;;5.00;;
11957;SDS011;6039;52.576;13.348;2024-02-14T23:20:16;7.07;;;5.00;;
11957;SDS011;6039;52.576;13.348;2024-02-14T23:25:20;11.50;;;5.37;;
11957;SDS011;6039;52.576;13.348;2024-02-14T23:30:25;7.40;;;5.30;;
11957;SDS011;6039;52.576;13.348;2024-02-14T23:35:31;8.47;;;5.57;;
11957;SDS011;6039;52.576;13.348;2024-02-14T23:40:35;7.50;;;4.93;;
11957;SDS011;6039;52.576;13.348;2024-02-14T23:45:39;8.33;;;5.50;;
11957;SDS011;6039;52.576;13.348;2024-02-14T23:50:46;7.47;;;5.63;;
11957;SDS011;6039;52.576;13.348;2024-02-14T23:55:50;7.63;;;5.27;;
